createdAt,value
2018-02-07T00:02:17.062Z,23.60
2018-02-07T00:04:44.642Z,24.47
2018-02-07T00:07:12.176Z,24.03
2018-02-07T00:09:39.724Z,24.50
2018-02-07T00:12:07.360Z,22.33
2018-02-07T00:14:35.687Z,23.37
2018-02-07T00:17:03.255Z,22.37
2018-02-07T00:19:30.808Z,21.43
2018-02-07T00:21:58.387Z,22.10
2018-02-07T00:24:25.922Z,21.03
2018-02-07T00:26:53.505Z,21.73
2018-02-07T00:29:21.033Z,21.03
2018-02-07T00:31:48.556Z,21.03
2018-02-07T00:34:16.088Z,22.43
2018-02-07T00:36:43.635Z,22.13
2018-02-07T00:39:11.200Z,20.93
2018-02-07T00:41:38.792Z,21.43
2018-02-07T00:44:06.362Z,21.40
2018-02-07T00:46:34.688Z,21.67
2018-02-07T00:49:02.289Z,19.70
2018-02-07T00:51:29.824Z,21.73
2018-02-07T00:53:57.614Z,18.50
2018-02-07T00:56:25.152Z,19.43
2018-02-07T00:58:52.711Z,19.37
2018-02-07T01:01:20.271Z,18.43
2018-02-07T01:03:47.894Z,17.73
2018-02-07T01:06:15.485Z,19.03
2018-02-07T01:08:43.035Z,19.23
2018-02-07T01:11:10.641Z,18.33
2018-02-07T01:13:38.216Z,19.30
2018-02-07T01:16:05.759Z,21.40
2018-02-07T01:18:34.104Z,20.83
2018-02-07T01:21:01.648Z,20.10
2018-02-07T01:23:29.228Z,21.03
2018-02-07T01:25:56.837Z,21.67
2018-02-07T01:28:24.376Z,20.53
2018-02-07T01:30:51.952Z,20.23
2018-02-07T01:33:19.517Z,20.97
2018-02-07T01:35:47.071Z,19.97
2018-02-07T01:38:14.631Z,19.80
2018-02-07T01:40:42.155Z,20.93
2018-02-07T01:43:09.727Z,20.80
2018-02-07T01:48:19.182Z,21.03
2018-02-07T01:50:46.743Z,19.97
2018-02-07T01:53:15.084Z,19.83
2018-02-07T01:55:42.622Z,20.37
2018-02-07T01:58:10.209Z,21.07
2018-02-07T02:00:37.745Z,19.93
2018-02-07T02:03:05.277Z,18.93
2018-02-07T02:05:33.622Z,20.43
2018-02-07T02:08:01.244Z,20.27
2018-02-07T02:10:28.762Z,19.33
2018-02-07T02:12:56.336Z,19.77
2018-02-07T02:15:25.124Z,18.87
2018-02-07T02:17:52.655Z,21.00
2018-02-07T02:20:20.227Z,19.10
2018-02-07T02:22:48.572Z,19.97
2018-02-07T02:25:16.166Z,19.73
2018-02-07T02:27:43.795Z,18.70
2018-02-07T02:30:11.374Z,20.53
2018-02-07T02:32:38.932Z,21.40
2018-02-07T02:35:06.464Z,19.67
2018-02-07T02:37:34.032Z,19.37
2018-02-07T02:40:01.572Z,20.13
2018-02-07T02:42:29.150Z,20.73
2018-02-07T02:44:56.705Z,19.97
2018-02-07T02:47:24.258Z,20.23
2018-02-07T02:49:51.814Z,20.37
2018-02-07T02:52:19.417Z,19.80
2018-02-07T02:54:46.971Z,19.97
2018-02-07T02:57:14.569Z,20.03
2018-02-07T02:59:42.151Z,21.70
2018-02-07T03:02:09.695Z,20.17
2018-02-07T03:04:37.247Z,19.93
2018-02-07T03:07:04.815Z,19.67
2018-02-07T03:09:32.386Z,20.30
2018-02-07T03:11:59.947Z,20.73
2018-02-07T03:14:27.474Z,19.70
2018-02-07T03:16:55.070Z,19.20
2018-02-07T03:19:22.629Z,20.27
2018-02-07T03:21:50.164Z,20.30
2018-02-07T03:24:18.006Z,19.87
2018-02-07T03:26:45.564Z,19.53
2018-02-07T03:29:13.916Z,19.93
2018-02-07T03:31:41.521Z,20.63
2018-02-07T03:34:09.120Z,20.03
2018-02-07T03:36:36.689Z,19.33
2018-02-07T03:39:04.235Z,18.70
2018-02-07T03:41:31.807Z,18.03
2018-02-07T03:43:59.372Z,20.37
2018-02-07T03:46:26.926Z,20.63
2018-02-07T03:48:54.494Z,19.67
2018-02-07T03:51:22.047Z,20.50
2018-02-07T03:53:49.625Z,20.37
2018-02-07T03:56:17.201Z,20.93
2018-02-07T03:58:45.022Z,19.53
2018-02-07T04:01:12.792Z,20.63
2018-02-07T04:03:40.346Z,19.63
2018-02-07T04:06:07.901Z,19.10
2018-02-07T04:08:35.433Z,19.90
2018-02-07T04:11:03.801Z,19.67
2018-02-07T04:13:31.324Z,19.77
2018-02-07T04:15:58.861Z,19.37
2018-02-07T04:18:26.433Z,20.17
2018-02-07T04:20:53.995Z,20.00
2018-02-07T04:23:21.542Z,19.70
2018-02-07T04:25:49.116Z,21.83
2018-02-07T04:28:17.042Z,20.63
2018-02-07T04:30:44.612Z,21.23
2018-02-07T04:33:12.146Z,21.50
2018-02-07T04:35:40.485Z,20.67
2018-02-07T04:38:08.015Z,21.47
2018-02-07T04:40:35.638Z,20.57
2018-02-07T04:43:03.404Z,21.67
2018-02-07T04:45:31.013Z,19.47
2018-02-07T04:47:58.575Z,20.37
2018-02-07T04:50:26.152Z,20.33
2018-02-07T04:52:53.714Z,19.80
2018-02-07T04:55:21.244Z,19.20
2018-02-07T04:57:48.805Z,22.70
2018-02-07T05:00:16.411Z,23.03
2018-02-07T05:02:43.925Z,28.83
2018-02-07T05:05:11.483Z,24.70
2018-02-07T05:07:39.038Z,23.83
2018-02-07T05:10:06.602Z,22.50
2018-02-07T05:12:34.427Z,22.77
2018-02-07T05:15:02.010Z,22.83
2018-02-07T05:17:29.588Z,23.53
2018-02-07T05:19:57.135Z,21.77
2018-02-07T05:22:24.694Z,23.17
2018-02-07T05:24:52.233Z,22.13
2018-02-07T05:27:19.869Z,20.33
2018-02-07T05:29:47.640Z,21.87
2018-02-07T05:32:15.972Z,23.83
2018-02-07T05:34:43.490Z,21.53
2018-02-07T05:37:11.808Z,22.13
2018-02-07T05:39:39.364Z,20.47
2018-02-07T05:42:06.876Z,20.33
2018-02-07T05:44:34.436Z,22.50
2018-02-07T05:47:01.988Z,22.20
2018-02-07T05:49:29.573Z,23.93
2018-02-07T05:51:57.114Z,22.57
2018-02-07T05:54:24.675Z,21.07
2018-02-07T05:56:53.151Z,21.73
2018-02-07T05:59:20.737Z,23.83
2018-02-07T06:01:49.018Z,21.43
2018-02-07T06:04:16.575Z,21.87
2018-02-07T06:06:44.131Z,21.20
2018-02-07T06:09:12.469Z,23.43
2018-02-07T06:11:40.792Z,22.17
2018-02-07T06:14:08.384Z,22.87
2018-02-07T06:16:35.918Z,23.17
2018-02-07T06:19:03.473Z,23.20
2018-02-07T06:21:30.997Z,22.40
2018-02-07T06:23:58.578Z,23.87
2018-02-07T06:26:26.152Z,22.63
2018-02-07T06:28:53.708Z,22.10
2018-02-07T06:31:22.026Z,23.53
2018-02-07T06:33:49.583Z,33.60
2018-02-07T06:36:17.260Z,41.97
2018-02-07T06:38:45.279Z,49.53
2018-02-07T06:41:13.036Z,42.20
2018-02-07T06:43:40.694Z,44.10
2018-02-07T06:46:08.273Z,25.27
2018-02-07T06:48:36.081Z,23.37
2018-02-07T06:51:03.639Z,23.60
2018-02-07T06:53:31.230Z,24.40
2018-02-07T06:55:58.788Z,24.43
2018-02-07T06:58:26.387Z,24.57
2018-02-07T07:00:54.028Z,26.07
2018-02-07T07:03:22.355Z,24.33
2018-02-07T07:05:50.033Z,24.43
2018-02-07T07:08:17.560Z,25.87
2018-02-07T07:10:45.103Z,23.80
2018-02-07T07:13:13.379Z,24.33
2018-02-07T07:15:40.935Z,25.80
2018-02-07T07:18:08.519Z,25.23
2018-02-07T07:20:36.116Z,26.03
2018-02-07T07:23:03.658Z,26.20
2018-02-07T07:25:31.306Z,26.33
2018-02-07T07:27:58.863Z,25.23
2018-02-07T07:30:26.403Z,23.73
2018-02-07T07:32:53.951Z,24.67
2018-02-07T07:35:21.580Z,25.07
2018-02-07T07:37:49.164Z,26.27
2018-02-07T07:40:16.708Z,25.10
2018-02-07T07:42:45.093Z,24.70
2018-02-07T07:45:13.431Z,25.30
2018-02-07T07:47:40.981Z,24.37
2018-02-07T07:50:08.660Z,26.53
2018-02-07T07:52:36.215Z,25.70
2018-02-07T07:55:03.800Z,25.13
2018-02-07T07:57:31.395Z,24.53
2018-02-07T07:59:59.820Z,25.37
2018-02-07T08:02:27.416Z,25.33
2018-02-07T08:04:55.077Z,26.10
2018-02-07T08:07:22.664Z,24.30
2018-02-07T08:09:50.222Z,26.17
2018-02-07T08:12:17.759Z,24.03
2018-02-07T08:14:45.367Z,24.17
2018-02-07T08:17:12.895Z,25.13
2018-02-07T08:19:40.652Z,28.23
2018-02-07T08:22:08.971Z,24.77
2018-02-07T08:24:36.579Z,25.83
2018-02-07T08:27:04.159Z,25.20
2018-02-07T08:29:31.882Z,25.20
2018-02-07T08:31:59.540Z,26.50
2018-02-07T08:34:27.213Z,29.67
2018-02-07T08:36:55.212Z,25.07
2018-02-07T08:39:23.071Z,27.70
2018-02-07T08:41:50.642Z,28.17
2018-02-07T08:44:18.513Z,26.73
2018-02-07T08:46:46.091Z,28.07
2018-02-07T08:49:13.825Z,26.90
2018-02-07T08:51:42.229Z,27.47
2018-02-07T08:54:09.809Z,26.87
2018-02-07T08:56:37.470Z,25.90
2018-02-07T08:59:05.144Z,25.47
2018-02-07T09:01:32.712Z,26.90
2018-02-07T09:04:00.812Z,26.00
2018-02-07T09:06:28.443Z,28.47
2018-02-07T09:08:56.200Z,27.60
2018-02-07T09:11:23.780Z,29.07
2018-02-07T09:13:51.418Z,28.27
2018-02-07T09:16:19.143Z,28.50
2018-02-07T09:18:46.769Z,26.83
2018-02-07T09:21:14.799Z,30.30
2018-02-07T09:23:42.394Z,27.83
2018-02-07T09:26:10.016Z,28.60
2018-02-07T09:28:37.654Z,26.87
2018-02-07T09:31:05.268Z,27.43
2018-02-07T09:33:32.883Z,26.80
2018-02-07T09:36:00.443Z,27.00
2018-02-07T09:38:27.999Z,28.63
2018-02-07T09:40:55.578Z,25.87
2018-02-07T09:43:24.327Z,27.00
2018-02-07T09:45:52.783Z,27.17
2018-02-07T09:48:20.382Z,26.23
2018-02-07T09:50:48.041Z,29.30
2018-02-07T09:53:15.663Z,27.23
2018-02-07T09:55:43.316Z,28.70
2018-02-07T09:58:10.857Z,30.37
2018-02-07T10:00:38.756Z,27.30
2018-02-07T10:03:06.336Z,26.90
2018-02-07T10:05:33.858Z,28.40
2018-02-07T10:08:01.420Z,27.77
2018-02-07T10:10:29.039Z,28.70
2018-02-07T10:12:56.583Z,27.77
2018-02-07T10:15:25.217Z,27.60
2018-02-07T10:17:52.821Z,29.30
2018-02-07T10:20:20.399Z,27.40
2018-02-07T10:22:47.929Z,29.20
2018-02-07T10:25:15.526Z,28.50
2018-02-07T10:27:43.135Z,28.77
2018-02-07T10:30:11.019Z,29.80
2018-02-07T10:32:38.571Z,30.67
2018-02-07T10:35:06.171Z,27.03
2018-02-07T10:37:33.758Z,28.63
2018-02-07T10:40:01.326Z,30.70
2018-02-07T10:42:28.860Z,29.23
2018-02-07T10:44:56.553Z,30.40
2018-02-07T10:47:24.099Z,28.17
2018-02-07T10:49:51.784Z,27.83
2018-02-07T10:52:19.695Z,27.93
2018-02-07T10:54:48.048Z,29.87
2018-02-07T10:57:15.686Z,29.37
2018-02-07T10:59:43.549Z,29.73
2018-02-07T11:02:11.382Z,27.93
2018-02-07T11:04:38.994Z,28.07
2018-02-07T11:07:06.567Z,28.83
2018-02-07T11:09:34.165Z,28.77
2018-02-07T11:12:01.815Z,28.33
2018-02-07T11:14:29.512Z,29.37
2018-02-07T11:16:57.044Z,28.83
2018-02-07T11:19:24.622Z,28.10
2018-02-07T11:21:52.195Z,28.60
2018-02-07T11:24:19.737Z,28.93
2018-02-07T11:26:47.362Z,29.40
2018-02-07T11:29:14.981Z,28.70
2018-02-07T11:31:42.616Z,29.57
2018-02-07T11:34:10.362Z,30.27
2018-02-07T11:36:38.681Z,28.57
2018-02-07T11:39:06.284Z,28.07
2018-02-07T11:41:33.863Z,29.27
2018-02-07T11:44:01.447Z,29.43
2018-02-07T11:46:29.134Z,27.30
2018-02-07T11:48:56.700Z,29.30
2018-02-07T11:51:24.438Z,27.77
2018-02-07T11:53:51.970Z,29.47
2018-02-07T11:56:19.557Z,27.83
2018-02-07T11:58:47.123Z,28.03
2018-02-07T12:01:14.677Z,28.43
2018-02-07T12:03:42.254Z,29.17
2018-02-07T12:06:09.946Z,28.93
2018-02-07T12:08:37.501Z,30.00
2018-02-07T12:11:05.906Z,29.63
2018-02-07T12:13:34.371Z,29.73
2018-02-07T12:16:01.947Z,29.77
2018-02-07T12:18:29.564Z,31.03
2018-02-07T12:20:57.144Z,28.90
2018-02-07T12:23:24.724Z,29.30
2018-02-07T12:25:53.053Z,28.77
2018-02-07T12:28:20.593Z,28.23
2018-02-07T12:30:48.226Z,28.83
2018-02-07T12:33:15.850Z,31.17
2018-02-07T12:35:43.501Z,30.07
2018-02-07T12:38:11.087Z,28.20
2018-02-07T12:40:38.610Z,28.97
2018-02-07T12:43:06.163Z,28.23
2018-02-07T12:45:33.732Z,29.60
2018-02-07T12:48:01.336Z,29.10
2018-02-07T12:50:28.892Z,29.80
2018-02-07T12:52:57.243Z,30.67
2018-02-07T12:55:24.885Z,28.93
2018-02-07T12:57:52.472Z,30.20
2018-02-07T13:00:20.081Z,28.90
2018-02-07T13:02:47.768Z,29.77
2018-02-07T13:05:15.332Z,28.93
2018-02-07T13:07:43.926Z,28.43
2018-02-07T13:10:11.596Z,29.97
2018-02-07T13:12:39.136Z,29.30
2018-02-07T13:15:06.710Z,28.30
2018-02-07T13:17:34.298Z,29.60
2018-02-07T13:20:01.988Z,28.30
2018-02-07T13:22:29.684Z,28.53
2018-02-07T13:24:57.394Z,28.93
2018-02-07T13:27:24.973Z,30.83
2018-02-07T13:29:52.531Z,27.90
2018-02-07T13:32:20.847Z,29.70
2018-02-07T13:34:48.427Z,30.20
2018-02-07T13:37:15.977Z,29.53
2018-02-07T13:39:43.587Z,28.17
2018-02-07T13:42:11.872Z,29.30
2018-02-07T13:44:39.419Z,30.43
2018-02-07T13:47:07.754Z,28.23
2018-02-07T13:49:35.484Z,28.47
2018-02-07T13:52:03.165Z,29.23
2018-02-07T13:54:30.741Z,31.67
2018-02-07T13:56:58.299Z,29.20
2018-02-07T13:59:25.900Z,29.37
2018-02-07T14:01:53.475Z,29.57
2018-02-07T14:04:22.097Z,30.80
2018-02-07T14:06:49.680Z,30.20
2018-02-07T14:09:17.220Z,29.57
2018-02-07T14:11:45.607Z,31.60
2018-02-07T14:14:13.206Z,30.00
2018-02-07T14:16:41.610Z,30.20
2018-02-07T14:19:09.252Z,29.73
2018-02-07T14:21:36.877Z,31.97
2018-02-07T14:24:04.428Z,30.63
2018-02-07T14:26:31.976Z,30.27
2018-02-07T14:28:59.654Z,29.77
2018-02-07T14:31:27.205Z,30.80
2018-02-07T14:33:54.853Z,29.70
2018-02-07T14:36:22.436Z,30.10
2018-02-07T14:38:50.042Z,29.83
2018-02-07T14:41:18.374Z,31.53
2018-02-07T14:43:45.939Z,31.13
2018-02-07T14:46:14.370Z,30.70
2018-02-07T14:48:41.927Z,29.80
2018-02-07T14:51:09.561Z,30.73
2018-02-07T14:53:37.191Z,30.90
2018-02-07T14:56:10.916Z,29.73
2018-02-07T14:58:39.439Z,31.10
2018-02-07T15:01:07.012Z,30.77
2018-02-07T15:03:34.652Z,30.43
2018-02-07T15:06:03.033Z,30.10
2018-02-07T15:08:31.476Z,29.30
2018-02-07T15:10:59.150Z,30.60
2018-02-07T15:13:26.809Z,32.50
2018-02-07T15:15:54.386Z,28.83
2018-02-07T15:18:22.699Z,31.30
2018-02-07T15:20:50.257Z,30.60
2018-02-07T15:23:18.023Z,28.63
2018-02-07T15:25:45.734Z,29.70
2018-02-07T15:28:13.264Z,30.87
2018-02-07T15:30:41.608Z,30.33
2018-02-07T15:33:09.156Z,31.13
2018-02-07T15:38:18.784Z,30.63
2018-02-07T15:40:46.359Z,29.83
2018-02-07T15:43:13.931Z,30.83
2018-02-07T15:45:42.380Z,31.30
2018-02-07T15:48:10.015Z,30.57
2018-02-07T15:50:37.552Z,31.27
2018-02-07T15:53:05.224Z,31.03
2018-02-07T15:55:32.804Z,29.27
2018-02-07T15:58:00.408Z,32.00
2018-02-07T16:00:27.967Z,32.43
2018-02-07T16:02:56.255Z,31.40
2018-02-07T16:05:23.906Z,31.30
2018-02-07T16:07:51.492Z,30.80
2018-02-07T16:10:19.154Z,30.47
2018-02-07T16:12:46.775Z,31.47
2018-02-07T16:15:14.342Z,30.97
2018-02-07T16:17:41.946Z,29.97
2018-02-07T16:20:09.552Z,29.50
2018-02-07T16:22:37.642Z,29.67
2018-02-07T16:25:05.225Z,30.67
2018-02-07T16:27:32.819Z,31.10
2018-02-07T16:30:00.496Z,31.57
2018-02-07T16:32:28.048Z,30.83
2018-02-07T16:34:55.563Z,30.00
2018-02-07T16:37:23.126Z,30.63
2018-02-07T16:39:50.685Z,32.33
2018-02-07T16:42:18.244Z,30.70
2018-02-07T16:44:45.827Z,30.07
2018-02-07T16:47:13.331Z,30.27
2018-02-07T16:49:40.907Z,31.37
2018-02-07T16:52:08.485Z,30.10
2018-02-07T16:54:36.044Z,29.73
2018-02-07T16:57:03.711Z,29.93
2018-02-07T16:59:31.290Z,30.23
2018-02-07T17:01:58.993Z,29.67
2018-02-07T17:04:26.577Z,29.10
2018-02-07T17:06:55.004Z,31.50
2018-02-07T17:09:22.657Z,29.47
2018-02-07T17:11:50.193Z,29.30
2018-02-07T17:14:17.723Z,29.80
2018-02-07T17:16:45.355Z,30.10
2018-02-07T17:19:12.894Z,28.03
2018-02-07T17:21:40.487Z,29.47
2018-02-07T17:24:08.035Z,27.70
2018-02-07T17:26:35.637Z,27.47
2018-02-07T17:29:03.220Z,28.33
2018-02-07T17:31:30.753Z,27.90
2018-02-07T17:33:58.323Z,27.43
2018-02-07T17:36:25.893Z,27.77
2018-02-07T17:38:53.465Z,27.40
2018-02-07T17:41:21.333Z,27.60
2018-02-07T17:43:48.891Z,26.33
2018-02-07T17:46:16.404Z,28.90
2018-02-07T17:48:44.760Z,28.07
2018-02-07T17:51:12.427Z,28.03
2018-02-07T17:53:40.004Z,28.27
2018-02-07T17:56:08.349Z,28.40
2018-02-07T17:58:35.936Z,27.77
2018-02-07T18:01:03.494Z,28.13
2018-02-07T18:03:31.053Z,29.93
2018-02-07T18:05:58.591Z,27.87
2018-02-07T18:08:26.151Z,28.03
2018-02-07T18:10:53.668Z,28.40
2018-02-07T18:13:21.517Z,29.23
2018-02-07T18:15:49.122Z,28.10
2018-02-07T18:18:16.660Z,28.43
2018-02-07T18:20:44.238Z,29.07
2018-02-07T18:23:11.924Z,28.10
2018-02-07T18:25:39.481Z,29.63
2018-02-07T18:28:07.031Z,28.67
2018-02-07T18:30:34.595Z,30.20
2018-02-07T18:33:02.156Z,30.27
2018-02-07T18:35:29.681Z,28.13
2018-02-07T18:37:57.241Z,30.30
2018-02-07T18:40:24.821Z,30.27
2018-02-07T18:42:52.361Z,30.47
2018-02-07T18:45:19.939Z,29.10
2018-02-07T18:47:47.471Z,28.83
2018-02-07T18:50:15.010Z,31.27
2018-02-07T18:52:42.568Z,28.70
2018-02-07T18:55:10.917Z,30.83
2018-02-07T18:57:38.467Z,30.13
2018-02-07T19:00:06.031Z,29.70
2018-02-07T19:02:33.593Z,31.57
2018-02-07T19:05:01.148Z,29.27
2018-02-07T19:07:28.745Z,30.23
2018-02-07T19:09:56.612Z,30.97
2018-02-07T19:12:24.954Z,30.67
2018-02-07T19:14:52.515Z,30.97
2018-02-07T19:17:20.078Z,31.03
2018-02-07T19:19:47.592Z,31.30
2018-02-07T19:22:15.450Z,32.73
2018-02-07T19:24:43.912Z,30.77
2018-02-07T19:27:11.503Z,30.70
2018-02-07T19:29:39.039Z,32.17
2018-02-07T19:32:07.370Z,31.17
2018-02-07T19:34:34.887Z,30.93
2018-02-07T19:37:03.284Z,30.73
2018-02-07T19:39:31.597Z,29.33
2018-02-07T19:41:59.121Z,32.30
2018-02-07T19:44:26.748Z,30.20
2018-02-07T19:46:54.276Z,29.67
2018-02-07T19:49:21.840Z,29.73
2018-02-07T19:51:49.395Z,29.70
2018-02-07T19:54:16.913Z,30.87
2018-02-07T19:56:44.471Z,29.70
2018-02-07T19:59:12.751Z,31.47
2018-02-07T20:01:40.313Z,30.47
2018-02-07T20:04:07.853Z,31.53
2018-02-07T20:06:35.420Z,29.67
2018-02-07T20:09:03.027Z,31.67
2018-02-07T20:11:30.657Z,30.30
2018-02-07T20:13:58.380Z,31.77
2018-02-07T20:16:25.976Z,30.40
2018-02-07T20:18:54.309Z,31.33
2018-02-07T20:21:21.855Z,31.77
2018-02-07T20:23:49.505Z,31.17
2018-02-07T20:26:17.028Z,30.27
2018-02-07T20:28:44.625Z,31.07
2018-02-07T20:31:12.154Z,30.03
2018-02-07T20:33:39.748Z,31.50
2018-02-07T20:36:07.335Z,32.23
2018-02-07T20:38:34.912Z,32.43
2018-02-07T20:41:03.262Z,30.53
2018-02-07T20:43:30.827Z,31.13
2018-02-07T20:48:40.330Z,30.70
2018-02-07T20:51:07.875Z,31.60
2018-02-07T20:53:35.453Z,31.00
2018-02-07T20:56:03.046Z,31.27
2018-02-07T20:58:30.561Z,30.57
2018-02-07T21:00:58.164Z,30.97
2018-02-07T21:03:25.690Z,30.30
2018-02-07T21:05:53.239Z,31.03
2018-02-07T21:08:20.804Z,32.03
2018-02-07T21:10:48.327Z,30.73
2018-02-07T21:13:15.881Z,30.90
2018-02-07T21:15:43.442Z,33.13
2018-02-07T21:18:11.032Z,30.50
2018-02-07T21:20:38.560Z,30.47
2018-02-07T21:23:06.127Z,30.60
2018-02-07T21:25:33.710Z,31.23
2018-02-07T21:28:01.309Z,30.80
2018-02-07T21:30:28.835Z,31.40
2018-02-07T21:32:57.402Z,32.37
2018-02-07T21:35:25.482Z,30.43
2018-02-07T21:37:53.853Z,32.20
2018-02-07T21:40:22.235Z,31.57
2018-02-07T21:42:50.599Z,30.77
2018-02-07T21:45:18.118Z,30.80
2018-02-07T21:47:45.643Z,32.10
2018-02-07T21:50:13.207Z,31.70
2018-02-07T21:52:40.765Z,32.17
2018-02-07T21:55:09.075Z,31.73
2018-02-07T21:57:36.601Z,30.17
2018-02-07T22:00:04.910Z,32.30
2018-02-07T22:02:32.441Z,34.00
2018-02-07T22:05:00.825Z,32.10
2018-02-07T22:07:28.385Z,32.63
2018-02-07T22:09:55.962Z,32.40
2018-02-07T22:12:23.507Z,33.50
2018-02-07T22:14:51.081Z,32.57
2018-02-07T22:17:18.624Z,33.77
2018-02-07T22:19:46.192Z,32.27
2018-02-07T22:22:13.759Z,32.63
2018-02-07T22:24:41.326Z,32.60
2018-02-07T22:27:09.771Z,32.53
2018-02-07T22:29:38.082Z,32.63
2018-02-07T22:32:05.634Z,32.00
2018-02-07T22:34:33.214Z,31.67
2018-02-07T22:37:00.735Z,30.33
2018-02-07T22:39:28.316Z,32.57
2018-02-07T22:41:56.154Z,32.57
2018-02-07T22:44:23.690Z,32.07
2018-02-07T22:46:51.270Z,33.10
2018-02-07T22:49:19.618Z,32.43
2018-02-07T22:51:47.158Z,30.83
2018-02-07T22:54:14.716Z,31.67
2018-02-07T22:56:42.280Z,29.73
2018-02-07T22:59:09.837Z,31.70
2018-02-07T23:01:37.376Z,32.00
2018-02-07T23:04:04.945Z,32.50
2018-02-07T23:06:32.516Z,33.47
2018-02-07T23:09:00.049Z,31.20
2018-02-07T23:11:27.622Z,30.97
2018-02-07T23:13:55.493Z,32.83
2018-02-07T23:16:23.051Z,32.10
2018-02-07T23:18:50.590Z,31.37
2018-02-07T23:21:18.147Z,30.93
2018-02-07T23:23:45.692Z,32.67
2018-02-07T23:26:13.266Z,31.00
2018-02-07T23:28:40.796Z,32.83
2018-02-07T23:31:08.322Z,30.90
2018-02-07T23:33:35.880Z,30.63
2018-02-07T23:36:03.408Z,31.13
2018-02-07T23:38:30.966Z,31.03
2018-02-07T23:40:58.494Z,32.10
2018-02-07T23:43:26.060Z,32.20
2018-02-07T23:45:53.580Z,29.83
2018-02-07T23:48:21.191Z,31.77
2018-02-07T23:50:49.550Z,30.80
2018-02-07T23:53:17.128Z,32.93
2018-02-07T23:55:44.675Z,29.97
2018-02-07T23:58:12.994Z,30.43
